createdAt,value
2023-08-08T00:00:49.521Z,0.20
2023-08-08T00:03:52.134Z,0.30
2023-08-08T00:06:54.585Z,0.30
2023-08-08T00:09:58.009Z,0.40
2023-08-08T00:13:00.436Z,0.20
2023-08-08T00:16:03.780Z,0.20
2023-08-08T00:19:06.227Z,0.30
2023-08-08T00:22:09.247Z,0.40
2023-08-08T00:25:11.745Z,0.30
2023-08-08T00:28:14.348Z,0.30
2023-08-08T00:31:19.032Z,0.20
2023-08-08T00:34:21.623Z,0.20
2023-08-08T00:37:25.145Z,0.28
2023-08-08T00:40:27.740Z,0.22
2023-08-08T00:43:30.479Z,0.38
2023-08-08T00:46:33.229Z,0.20
2023-08-08T00:49:36.588Z,0.20
2023-08-08T00:52:40.378Z,0.30
2023-08-08T00:55:42.898Z,0.20
2023-08-08T00:58:51.583Z,0.30
2023-08-08T01:01:54.477Z,0.20
2023-08-08T01:04:57.121Z,0.30
2023-08-08T01:08:07.477Z,0.30
2023-08-08T01:11:10.391Z,0.20
2023-08-08T01:14:13.220Z,0.30
2023-08-08T01:17:17.684Z,0.30
2023-08-08T01:20:20.881Z,0.20
2023-08-08T01:23:44.936Z,0.30
2023-08-08T01:26:47.923Z,0.22
2023-08-08T01:29:50.799Z,0.30
2023-08-08T01:32:53.381Z,0.27
2023-08-08T01:36:14.828Z,0.28
2023-08-08T01:39:23.659Z,0.20
2023-08-08T01:42:27.219Z,0.30
2023-08-08T01:45:29.733Z,0.30
2023-08-08T01:48:32.454Z,0.20
2023-08-08T01:51:35.314Z,0.30
2023-08-08T01:54:37.805Z,0.20
2023-08-08T01:57:40.370Z,0.22
2023-08-08T02:00:45.175Z,0.20
2023-08-08T02:03:47.721Z,0.20
2023-08-08T02:06:50.202Z,0.20
2023-08-08T02:09:52.721Z,0.50
2023-08-08T02:12:55.196Z,0.20
2023-08-08T02:15:57.812Z,0.30
2023-08-08T02:19:00.355Z,0.20
2023-08-08T02:22:03.191Z,0.30
2023-08-08T02:25:05.956Z,0.45
2023-08-08T02:28:08.505Z,0.20
2023-08-08T02:31:12.277Z,0.50
2023-08-08T02:34:14.819Z,0.20
2023-08-08T02:37:17.317Z,0.20
2023-08-08T02:40:20.182Z,0.30
2023-08-08T02:43:23.084Z,0.20
2023-08-08T02:46:25.909Z,0.40
2023-08-08T02:49:29.749Z,0.33
2023-08-08T02:52:32.504Z,0.20
2023-08-08T02:55:37.677Z,0.30
2023-08-08T02:58:40.272Z,0.22
2023-08-08T03:01:43.807Z,0.30
2023-08-08T03:04:52.733Z,0.20
2023-08-08T03:07:56.014Z,0.20
2023-08-08T03:11:00.826Z,0.60
2023-08-08T03:14:04.388Z,0.30
2023-08-08T03:17:08.167Z,0.20
2023-08-08T03:20:12.254Z,0.40
2023-08-08T03:23:15.251Z,0.60
2023-08-08T03:26:18.389Z,0.30
2023-08-08T03:29:21.736Z,0.20
2023-08-08T03:32:25.616Z,0.30
2023-08-08T03:35:28.554Z,0.23
2023-08-08T03:38:31.066Z,0.20
2023-08-08T03:41:33.615Z,0.30
2023-08-08T03:44:36.134Z,0.22
2023-08-08T03:47:38.837Z,0.30
2023-08-08T03:50:41.369Z,0.20
2023-08-08T03:53:43.942Z,0.20
2023-08-08T03:56:46.618Z,0.20
2023-08-08T03:59:49.172Z,0.30
2023-08-08T04:02:51.797Z,0.30
2023-08-08T04:05:54.686Z,0.30
2023-08-08T04:08:57.166Z,0.28
2023-08-08T04:12:00.131Z,0.25
2023-08-08T04:15:03.023Z,0.30
2023-08-08T04:18:07.692Z,0.30
2023-08-08T04:21:10.814Z,0.23
2023-08-08T04:24:13.601Z,0.20
2023-08-08T04:27:16.067Z,0.28
2023-08-08T04:30:18.553Z,0.20
2023-08-08T04:33:20.989Z,0.35
2023-08-08T04:36:23.415Z,0.20
2023-08-08T04:39:25.840Z,0.30
2023-08-08T04:42:28.311Z,0.40
2023-08-08T04:45:30.851Z,0.20
2023-08-08T04:48:33.903Z,0.30
2023-08-08T04:51:36.494Z,0.20
2023-08-08T04:54:38.950Z,0.25
2023-08-08T04:57:41.532Z,0.30
2023-08-08T05:00:44.210Z,0.40
2023-08-08T05:03:47.266Z,0.30
2023-08-08T05:06:49.872Z,0.63
2023-08-08T05:09:53.094Z,0.28
2023-08-08T05:12:55.548Z,0.30
2023-08-08T05:15:58.075Z,0.45
2023-08-08T05:19:00.548Z,0.30
2023-08-08T05:22:03.103Z,0.27
2023-08-08T05:25:07.214Z,0.30
2023-08-08T05:28:11.660Z,0.22
2023-08-08T05:31:14.077Z,0.30
2023-08-08T05:34:16.674Z,0.30
2023-08-08T05:37:19.206Z,0.30
2023-08-08T05:40:21.777Z,0.30
2023-08-08T05:43:24.255Z,0.30
2023-08-08T05:46:26.848Z,0.35
2023-08-08T05:49:29.655Z,0.30
2023-08-08T05:52:32.641Z,0.33
2023-08-08T05:55:35.167Z,0.30
2023-08-08T05:58:40.510Z,0.40
2023-08-08T06:01:43.100Z,0.35
2023-08-08T06:04:46.508Z,0.50
2023-08-08T06:07:49.069Z,0.30
2023-08-08T06:10:51.530Z,0.40
2023-08-08T06:13:55.641Z,0.30
2023-08-08T06:16:58.155Z,0.30
2023-08-08T06:20:00.767Z,0.38
2023-08-08T06:23:04.998Z,0.30
2023-08-08T06:26:07.681Z,0.50
2023-08-08T06:29:10.339Z,0.30
2023-08-08T06:32:12.861Z,0.30
2023-08-08T06:35:18.364Z,0.30
2023-08-08T06:38:20.819Z,0.47
2023-08-08T06:41:23.296Z,0.30
2023-08-08T06:44:25.695Z,0.30
2023-08-08T06:47:28.204Z,0.30
2023-08-08T06:50:31.049Z,0.35
2023-08-08T06:53:33.572Z,0.33
2023-08-08T06:56:36.145Z,0.47
2023-08-08T06:59:38.733Z,0.32
2023-08-08T07:02:41.281Z,0.85
2023-08-08T07:05:44.100Z,0.60
2023-08-08T07:08:46.600Z,0.30
2023-08-08T07:11:49.136Z,0.40
2023-08-08T07:14:51.694Z,0.40
2023-08-08T07:17:54.521Z,0.30
2023-08-08T07:20:57.786Z,0.57
2023-08-08T07:24:00.349Z,0.40
2023-08-08T07:27:02.882Z,0.40
2023-08-08T07:30:07.993Z,0.40
2023-08-08T07:33:10.839Z,0.30
2023-08-08T07:36:13.499Z,0.40
2023-08-08T07:39:16.231Z,0.50
2023-08-08T07:42:18.835Z,0.55
2023-08-08T07:45:22.047Z,0.57
2023-08-08T07:48:24.650Z,0.45
2023-08-08T07:51:27.129Z,0.80
2023-08-08T07:54:29.649Z,0.30
2023-08-08T07:57:35.877Z,0.40
2023-08-08T08:00:39.651Z,0.57
2023-08-08T08:03:43.046Z,0.52
2023-08-08T08:06:45.725Z,0.50
2023-08-08T08:09:48.199Z,0.90
2023-08-08T08:12:50.716Z,0.50
2023-08-08T08:15:53.300Z,0.43
2023-08-08T08:18:55.787Z,0.55
2023-08-08T08:21:58.636Z,0.40
2023-08-08T08:25:01.437Z,0.40
2023-08-08T08:28:04.181Z,0.47
2023-08-08T08:31:08.140Z,0.40
2023-08-08T08:34:10.747Z,0.60
2023-08-08T08:37:13.398Z,0.60
2023-08-08T08:40:15.886Z,0.47
2023-08-08T08:43:18.604Z,0.40
2023-08-08T08:46:23.490Z,0.60
2023-08-08T08:49:27.457Z,0.50
2023-08-08T08:52:30.170Z,0.57
2023-08-08T08:55:33.584Z,0.40
2023-08-08T08:58:36.092Z,0.32
2023-08-08T09:01:44.264Z,0.50
2023-08-08T09:04:48.003Z,0.55
2023-08-08T09:07:52.507Z,0.80
2023-08-08T09:10:55.762Z,0.33
2023-08-08T09:13:58.268Z,0.40
2023-08-08T09:17:00.769Z,0.40
2023-08-08T09:20:05.118Z,0.40
2023-08-08T09:23:07.647Z,0.60
2023-08-08T09:26:10.058Z,0.67
2023-08-08T09:29:16.000Z,0.40
2023-08-08T09:32:19.210Z,0.60
2023-08-08T09:35:24.462Z,0.77
2023-08-08T09:38:27.007Z,0.73
2023-08-08T09:41:29.506Z,0.40
2023-08-08T09:44:32.860Z,0.68
2023-08-08T09:47:35.382Z,0.50
2023-08-08T09:50:38.842Z,0.70
2023-08-08T09:53:42.350Z,0.52
2023-08-08T09:56:44.892Z,0.50
2023-08-08T09:59:48.737Z,0.90
2023-08-08T10:02:51.682Z,0.50
2023-08-08T10:05:54.424Z,0.60
2023-08-08T10:08:57.022Z,0.63
2023-08-08T10:12:00.492Z,0.50
2023-08-08T10:15:04.882Z,0.60
2023-08-08T10:18:08.269Z,0.60
2023-08-08T10:21:17.627Z,0.50
2023-08-08T10:24:25.988Z,0.75
2023-08-08T10:27:33.936Z,0.50
2023-08-08T10:30:48.080Z,0.70
2023-08-08T10:33:50.837Z,0.60
2023-08-08T10:36:56.052Z,0.50
2023-08-08T10:40:00.111Z,0.70
2023-08-08T10:43:12.351Z,0.60
2023-08-08T10:46:14.838Z,0.68
2023-08-08T10:49:18.298Z,0.60
2023-08-08T10:52:20.824Z,0.70
2023-08-08T10:55:27.013Z,0.60
2023-08-08T10:58:40.355Z,0.60
2023-08-08T11:01:43.462Z,0.88
2023-08-08T11:04:46.072Z,0.88
2023-08-08T11:07:49.380Z,0.50
2023-08-08T11:10:54.125Z,0.60
2023-08-08T11:13:56.590Z,1.13
2023-08-08T11:16:59.137Z,0.60
2023-08-08T11:20:02.998Z,0.95
2023-08-08T11:23:07.186Z,0.60
2023-08-08T11:29:16.389Z,0.70
2023-08-08T11:32:19.263Z,0.60
2023-08-08T11:35:26.434Z,0.60
2023-08-08T11:38:29.649Z,1.05
2023-08-08T11:41:34.561Z,0.50
2023-08-08T11:44:37.139Z,0.50
2023-08-08T11:47:42.485Z,0.50
2023-08-08T11:50:45.792Z,0.60
2023-08-08T11:53:55.005Z,0.60
2023-08-08T11:56:57.515Z,0.80
2023-08-08T12:00:00.080Z,0.70
2023-08-08T12:03:05.769Z,0.63
2023-08-08T12:06:18.882Z,0.60
2023-08-08T12:09:21.550Z,0.60
2023-08-08T12:12:24.078Z,0.80
2023-08-08T12:15:31.933Z,0.67
2023-08-08T12:18:35.962Z,0.90
2023-08-08T12:21:38.467Z,0.60
2023-08-08T12:24:41.207Z,0.80
2023-08-08T12:27:43.744Z,0.95
2023-08-08T12:30:46.440Z,0.80
2023-08-08T12:33:50.036Z,0.70
2023-08-08T12:36:52.660Z,0.60
2023-08-08T12:39:55.564Z,0.50
2023-08-08T12:42:58.122Z,0.60
2023-08-08T12:46:00.687Z,0.50
2023-08-08T12:49:03.197Z,0.50
2023-08-08T12:52:05.968Z,0.63
2023-08-08T12:55:09.240Z,0.50
2023-08-08T12:58:11.847Z,0.50
2023-08-08T13:01:14.453Z,0.50
2023-08-08T13:04:19.939Z,0.80
2023-08-08T13:07:22.746Z,1.17
2023-08-08T13:10:26.078Z,1.00
2023-08-08T13:13:28.556Z,1.30
2023-08-08T13:16:31.017Z,1.23
2023-08-08T13:19:33.485Z,0.90
2023-08-08T13:22:36.411Z,1.50
2023-08-08T13:25:38.930Z,1.40
2023-08-08T13:28:41.489Z,1.27
2023-08-08T13:31:44.501Z,1.33
2023-08-08T13:34:46.950Z,0.70
2023-08-08T13:37:52.145Z,0.70
2023-08-08T13:40:54.816Z,0.70
2023-08-08T13:43:57.444Z,1.60
2023-08-08T13:46:59.832Z,1.40
2023-08-08T13:50:02.280Z,1.40
2023-08-08T13:53:05.142Z,0.95
2023-08-08T13:56:07.744Z,1.30
2023-08-08T13:59:10.302Z,1.35
2023-08-08T14:02:12.883Z,1.60
2023-08-08T14:05:16.428Z,0.85
2023-08-08T14:08:19.417Z,1.00
2023-08-08T14:11:21.959Z,0.70
2023-08-08T14:14:24.493Z,1.40
2023-08-08T14:17:26.992Z,1.40
2023-08-08T14:20:29.596Z,1.40
2023-08-08T14:23:32.481Z,1.52
2023-08-08T14:26:35.079Z,1.48
2023-08-08T14:29:37.577Z,0.80
2023-08-08T14:32:40.281Z,0.70
2023-08-08T14:35:43.656Z,1.40
2023-08-08T14:38:46.219Z,1.35
2023-08-08T14:41:49.026Z,1.55
2023-08-08T14:44:52.197Z,1.60
2023-08-08T14:47:54.794Z,1.60
2023-08-08T14:50:57.338Z,1.50
2023-08-08T14:53:59.923Z,1.90
2023-08-08T14:57:03.070Z,1.55
2023-08-08T15:00:07.852Z,1.30
2023-08-08T15:03:11.302Z,1.50
2023-08-08T15:06:13.951Z,1.80
2023-08-08T15:09:16.529Z,1.88
2023-08-08T15:12:19.077Z,1.92
2023-08-08T15:15:24.159Z,1.90
2023-08-08T15:18:26.969Z,1.20
2023-08-08T15:21:29.789Z,1.30
2023-08-08T15:24:32.240Z,1.77
2023-08-08T15:27:34.717Z,1.60
2023-08-08T15:30:38.636Z,1.67
2023-08-08T15:33:41.274Z,1.00
2023-08-08T15:36:44.019Z,1.42
2023-08-08T15:39:46.609Z,1.45
2023-08-08T15:42:49.091Z,1.73
2023-08-08T15:45:53.029Z,1.70
2023-08-08T15:48:56.011Z,2.10
2023-08-08T15:51:58.754Z,1.80
2023-08-08T15:55:01.340Z,1.35
2023-08-08T15:58:04.485Z,1.00
2023-08-08T16:01:08.049Z,0.93
2023-08-08T16:04:11.801Z,0.80
2023-08-08T16:07:19.094Z,0.70
2023-08-08T16:10:22.051Z,0.60
2023-08-08T16:13:24.575Z,0.60
2023-08-08T16:16:27.157Z,0.75
2023-08-08T16:19:29.776Z,0.50
2023-08-08T16:22:32.282Z,0.60
2023-08-08T16:25:34.776Z,0.47
2023-08-08T16:28:37.665Z,0.40
2023-08-08T16:31:40.335Z,0.60
2023-08-08T16:34:42.883Z,0.60
2023-08-08T16:37:45.464Z,0.40
2023-08-08T16:40:48.138Z,0.70
2023-08-08T16:44:06.081Z,0.88
2023-08-08T16:47:08.897Z,0.50
2023-08-08T16:50:11.692Z,0.50
2023-08-08T16:53:14.184Z,0.52
2023-08-08T16:56:18.167Z,0.52
2023-08-08T16:59:20.627Z,0.45
2023-08-08T17:02:23.054Z,0.50
2023-08-08T17:05:25.663Z,0.40
2023-08-08T17:08:28.265Z,0.50
2023-08-08T17:11:30.768Z,0.45
2023-08-08T17:14:33.278Z,0.50
2023-08-08T17:17:36.026Z,0.50
2023-08-08T17:20:38.492Z,0.40
2023-08-08T17:23:41.561Z,0.93
2023-08-08T17:26:45.022Z,0.50
2023-08-08T17:29:47.467Z,0.40
2023-08-08T17:32:50.442Z,0.50
2023-08-08T17:35:53.049Z,0.47
2023-08-08T17:38:55.678Z,0.40
2023-08-08T17:41:58.199Z,0.40
2023-08-08T17:45:00.637Z,0.40
2023-08-08T17:48:03.389Z,0.50
2023-08-08T17:51:06.033Z,0.40
2023-08-08T17:54:08.610Z,0.47
2023-08-08T17:57:11.177Z,0.40
2023-08-08T18:00:14.185Z,0.47
2023-08-08T18:03:16.718Z,0.50
2023-08-08T18:06:19.409Z,0.47
2023-08-08T18:09:22.796Z,0.30
2023-08-08T18:12:25.355Z,0.50
2023-08-08T18:15:27.941Z,0.30
2023-08-08T18:18:30.734Z,0.32
2023-08-08T18:21:33.357Z,0.43
2023-08-08T18:24:35.805Z,0.50
2023-08-08T18:27:38.347Z,0.30
2023-08-08T18:30:40.979Z,0.30
2023-08-08T18:33:44.293Z,0.40
2023-08-08T18:36:46.832Z,0.40
2023-08-08T18:39:49.287Z,0.30
2023-08-08T18:42:52.327Z,0.57
2023-08-08T18:45:54.880Z,0.40
2023-08-08T18:48:57.656Z,0.50
2023-08-08T18:52:00.598Z,0.30
2023-08-08T18:55:03.642Z,0.40
2023-08-08T18:58:06.380Z,0.30
2023-08-08T19:01:09.099Z,0.40
2023-08-08T19:04:11.716Z,0.50
2023-08-08T19:07:14.496Z,0.40
2023-08-08T19:10:17.589Z,1.17
2023-08-08T19:13:20.254Z,0.30
2023-08-08T19:16:23.008Z,0.43
2023-08-08T19:19:26.318Z,1.10
2023-08-08T19:22:28.921Z,0.50
2023-08-08T19:25:31.598Z,0.30
2023-08-08T19:28:34.102Z,0.40
2023-08-08T19:31:36.553Z,0.30
2023-08-08T19:34:39.305Z,0.85
2023-08-08T19:37:41.901Z,0.50
2023-08-08T19:40:44.367Z,0.30
2023-08-08T19:43:46.827Z,0.40
2023-08-08T19:46:49.420Z,0.30
2023-08-08T19:49:51.897Z,0.30
2023-08-08T19:52:54.761Z,0.40
2023-08-08T19:55:59.105Z,0.60
2023-08-08T19:59:01.645Z,0.95
2023-08-08T20:02:05.933Z,0.40
2023-08-08T20:05:09.690Z,0.40
2023-08-08T20:08:12.332Z,0.40
2023-08-08T20:11:15.236Z,0.50
2023-08-08T20:14:17.763Z,0.38
2023-08-08T20:17:20.249Z,0.40
2023-08-08T20:20:22.901Z,0.30
2023-08-08T20:23:25.572Z,0.30
2023-08-08T20:26:28.198Z,0.40
2023-08-08T20:29:31.243Z,1.15
2023-08-08T20:32:34.012Z,0.30
2023-08-08T20:35:36.633Z,0.43
2023-08-08T20:38:39.135Z,0.67
2023-08-08T20:41:41.703Z,0.75
2023-08-08T20:44:44.198Z,0.52
2023-08-08T20:47:46.664Z,0.45
2023-08-08T20:50:49.152Z,0.77
2023-08-08T20:53:51.648Z,0.40
2023-08-08T20:56:58.941Z,0.30
2023-08-08T21:00:01.930Z,0.38
2023-08-08T21:03:05.415Z,0.40
2023-08-08T21:06:08.691Z,0.50
2023-08-08T21:09:11.397Z,0.27
2023-08-08T21:12:15.645Z,0.30
2023-08-08T21:15:18.220Z,0.38
2023-08-08T21:18:20.827Z,0.30
2023-08-08T21:21:23.389Z,0.30
2023-08-08T21:24:26.153Z,0.33
2023-08-08T21:27:28.732Z,0.30
2023-08-08T21:30:31.305Z,0.40
2023-08-08T21:33:34.369Z,0.40
2023-08-08T21:36:36.941Z,0.30
2023-08-08T21:39:39.921Z,0.30
2023-08-08T21:42:42.356Z,0.55
2023-08-08T21:45:44.819Z,0.20
2023-08-08T21:48:47.453Z,0.22
2023-08-08T21:51:50.001Z,0.38
2023-08-08T21:54:52.456Z,0.30
2023-08-08T21:57:55.792Z,0.38
2023-08-08T22:00:58.987Z,0.20
2023-08-08T22:04:01.518Z,0.30
2023-08-08T22:07:04.495Z,0.50
2023-08-08T22:10:07.373Z,0.20
2023-08-08T22:13:10.925Z,0.30
2023-08-08T22:16:13.864Z,0.30
2023-08-08T22:19:16.913Z,0.22
2023-08-08T22:22:19.412Z,0.50
2023-08-08T22:25:21.978Z,0.33
2023-08-08T22:28:24.460Z,0.20
2023-08-08T22:31:26.949Z,2.35
2023-08-08T22:34:29.576Z,0.30
2023-08-08T22:37:32.103Z,0.30
2023-08-08T22:40:34.654Z,0.30
2023-08-08T22:43:38.089Z,0.20
2023-08-08T22:46:40.650Z,0.30
2023-08-08T22:49:43.113Z,0.32
2023-08-08T22:52:45.562Z,0.22
2023-08-08T22:55:48.020Z,0.20
2023-08-08T22:58:50.599Z,0.40
2023-08-08T23:01:53.082Z,0.30
2023-08-08T23:04:56.629Z,0.20
2023-08-08T23:07:59.292Z,0.50
2023-08-08T23:11:02.220Z,0.20
2023-08-08T23:14:04.781Z,0.32
2023-08-08T23:17:07.226Z,0.30
2023-08-08T23:20:10.077Z,0.30
2023-08-08T23:23:12.579Z,0.50
2023-08-08T23:26:15.813Z,0.20
2023-08-08T23:29:18.312Z,0.30
2023-08-08T23:32:20.804Z,0.70
2023-08-08T23:35:23.619Z,0.32
2023-08-08T23:38:26.221Z,0.45
2023-08-08T23:41:28.684Z,0.30
2023-08-08T23:44:31.638Z,0.30
2023-08-08T23:47:34.184Z,0.30
2023-08-08T23:50:36.705Z,0.30
2023-08-08T23:53:39.167Z,0.70
2023-08-08T23:56:41.916Z,0.40
2023-08-08T23:59:44.472Z,0.20
